createdAt,value
2023-01-12T00:00:13.700Z,101005.78
2023-01-12T00:02:42.772Z,100999.25
2023-01-12T00:05:11.763Z,100994.56
2023-01-12T00:07:40.896Z,100991.41
2023-01-12T00:10:10.734Z,100990.06
2023-01-12T00:12:39.707Z,100979.84
2023-01-12T00:15:11.605Z,100983.41
2023-01-12T00:17:40.757Z,100973.72
2023-01-12T00:20:11.430Z,100969.19
2023-01-12T00:22:40.410Z,100974.78
2023-01-12T00:25:09.877Z,100962.13
2023-01-12T00:27:38.949Z,100966.53
2023-01-12T00:30:13.252Z,100962.69
2023-01-12T00:32:42.212Z,100965.03
2023-01-12T00:35:11.377Z,100965.34
2023-01-12T00:37:40.569Z,100951.47
2023-01-12T00:40:11.931Z,100960.00
2023-01-12T00:42:59.520Z,100957.09
2023-01-12T00:45:30.368Z,100960.97
2023-01-12T00:47:59.384Z,100962.94
2023-01-12T00:50:28.303Z,100959.59
2023-01-12T00:52:57.260Z,100961.84
2023-01-12T00:55:26.263Z,100960.91
2023-01-12T00:57:55.451Z,100950.81
2023-01-12T01:00:24.743Z,100958.13
2023-01-12T01:02:55.502Z,100957.47
2023-01-12T01:05:24.450Z,100954.13
2023-01-12T01:07:53.537Z,100951.06
2023-01-12T01:10:22.502Z,100949.50
2023-01-12T01:12:52.060Z,100945.75
2023-01-12T01:15:21.054Z,100958.56
2023-01-12T01:17:50.077Z,100950.97
2023-01-12T01:20:21.851Z,100951.47
2023-01-12T01:22:50.903Z,100957.47
2023-01-12T01:25:19.898Z,100956.53
2023-01-12T01:27:48.985Z,100968.53
2023-01-12T01:30:18.475Z,100959.75
2023-01-12T01:32:47.414Z,100956.16
2023-01-12T01:35:16.531Z,100949.88
2023-01-12T01:37:46.991Z,100952.69
2023-01-12T01:40:16.032Z,100948.31
2023-01-12T01:42:45.079Z,100946.44
2023-01-12T01:45:16.972Z,100962.13
2023-01-12T01:47:49.603Z,100955.34
2023-01-12T01:50:21.313Z,100954.00
2023-01-12T01:52:54.498Z,100948.94
2023-01-12T01:55:26.414Z,100946.97
2023-01-12T01:58:00.175Z,100936.06
2023-01-12T02:00:29.577Z,100940.59
2023-01-12T02:03:00.985Z,100935.56
2023-01-12T02:05:30.403Z,100930.88
2023-01-12T02:08:06.726Z,100922.38
2023-01-12T02:10:36.001Z,100919.84
2023-01-12T02:13:33.795Z,100922.38
2023-01-12T02:16:25.697Z,100916.75
2023-01-12T02:19:06.714Z,100918.13
2023-01-12T02:22:10.901Z,100916.09
2023-01-12T02:25:03.513Z,100904.66
2023-01-12T02:27:44.332Z,100898.16
2023-01-12T02:30:42.006Z,100889.13
2023-01-12T02:33:23.849Z,100887.13
2023-01-12T02:36:03.162Z,100897.75
2023-01-12T02:38:38.660Z,100896.81
2023-01-12T02:41:17.840Z,100885.75
2023-01-12T02:43:46.475Z,100883.25
2023-01-12T02:46:22.494Z,100882.31
2023-01-12T02:48:57.261Z,100892.41
2023-01-12T02:51:32.527Z,100895.38
2023-01-12T02:54:06.077Z,100903.03
2023-01-12T02:56:39.900Z,100893.34
2023-01-12T02:59:13.308Z,100885.47
2023-01-12T03:01:43.733Z,100879.13
2023-01-12T03:04:15.727Z,100880.59
2023-01-12T03:06:47.391Z,100883.78
2023-01-12T03:09:19.839Z,100889.59
2023-01-12T03:11:51.836Z,100883.63
2023-01-12T03:14:23.866Z,100886.94
2023-01-12T03:16:55.439Z,100891.06
2023-01-12T03:19:31.709Z,100908.91
2023-01-12T03:22:04.148Z,100898.41
2023-01-12T03:24:38.105Z,100896.81
2023-01-12T03:27:11.239Z,100891.06
2023-01-12T03:29:46.049Z,100886.03
2023-01-12T03:32:15.207Z,100887.38
2023-01-12T03:34:46.711Z,100883.25
2023-01-12T03:37:24.765Z,100873.38
2023-01-12T03:40:01.928Z,100873.94
2023-01-12T03:42:39.710Z,100884.59
2023-01-12T03:45:21.738Z,100886.19
2023-01-12T03:47:55.685Z,100888.16
2023-01-12T03:50:32.008Z,100890.56
2023-01-12T03:53:03.575Z,100888.31
2023-01-12T03:55:34.168Z,100890.97
2023-01-12T03:58:04.150Z,100893.75
2023-01-12T04:00:33.341Z,100889.38
2023-01-12T04:03:09.548Z,100898.81
2023-01-12T04:05:42.064Z,100879.81
2023-01-12T04:08:12.142Z,100879.53
2023-01-12T04:10:41.107Z,100872.22
2023-01-12T04:13:09.074Z,100875.94
2023-01-12T04:15:42.672Z,100871.44
2023-01-12T04:18:13.190Z,100861.84
2023-01-12T04:20:43.652Z,100859.56
2023-01-12T04:23:11.615Z,100871.00
2023-01-12T04:25:40.538Z,100861.44
2023-01-12T04:28:09.662Z,100848.41
2023-01-12T04:30:38.593Z,100848.66
2023-01-12T04:33:09.580Z,100850.00
2023-01-12T04:35:38.583Z,100841.75
2023-01-12T04:38:09.792Z,100844.28
2023-01-12T04:40:38.931Z,100844.81
2023-01-12T04:43:08.864Z,100841.31
2023-01-12T04:45:39.423Z,100845.75
2023-01-12T04:48:14.247Z,100848.91
2023-01-12T04:50:44.658Z,100852.13
2023-01-12T04:53:15.013Z,100851.88
2023-01-12T04:55:44.788Z,100859.28
2023-01-12T04:58:13.760Z,100859.03
2023-01-12T05:00:42.924Z,100855.56
2023-01-12T05:03:13.222Z,100853.44
2023-01-12T05:05:42.785Z,100860.09
2023-01-12T05:08:29.499Z,100858.63
2023-01-12T05:11:01.623Z,100859.97
2023-01-12T05:13:32.577Z,100860.06
2023-01-12T05:16:10.172Z,100862.09
2023-01-12T05:18:39.430Z,100852.41
2023-01-12T05:21:08.852Z,100849.75
2023-01-12T05:23:37.971Z,100850.66
2023-01-12T05:26:08.455Z,100841.63
2023-01-12T05:28:37.791Z,100854.38
2023-01-12T05:31:09.537Z,100852.50
2023-01-12T05:33:40.352Z,100853.03
2023-01-12T05:36:11.994Z,100850.09
2023-01-12T05:38:41.454Z,100854.38
2023-01-12T05:41:14.585Z,100851.72
2023-01-12T05:43:53.014Z,100859.19
2023-01-12T05:46:24.257Z,100858.25
2023-01-12T05:48:54.633Z,100859.19
2023-01-12T05:51:24.893Z,100854.78
2023-01-12T05:53:55.581Z,100845.84
2023-01-12T05:56:27.708Z,100854.25
2023-01-12T05:58:58.950Z,100853.72
2023-01-12T06:01:28.936Z,100852.50
2023-01-12T06:04:00.308Z,100854.78
2023-01-12T06:06:31.882Z,100841.19
2023-01-12T06:09:01.814Z,100837.34
2023-01-12T06:11:49.793Z,100856.25
2023-01-12T06:14:19.556Z,100860.22
2023-01-12T06:16:48.613Z,100850.38
2023-01-12T06:19:17.649Z,100850.66
2023-01-12T06:21:46.583Z,100857.31
2023-01-12T06:24:15.531Z,100852.50
2023-01-12T06:26:46.535Z,100845.84
2023-01-12T06:29:15.538Z,100835.34
2023-01-12T06:31:44.917Z,100833.88
2023-01-12T06:34:13.909Z,100833.72
2023-01-12T06:36:43.152Z,100839.44
2023-01-12T06:39:13.501Z,100842.91
2023-01-12T06:41:59.736Z,100832.50
2023-01-12T06:44:30.111Z,100837.19
2023-01-12T06:46:59.565Z,100839.03
2023-01-12T06:49:28.911Z,100838.50
2023-01-12T06:51:58.072Z,100837.19
2023-01-12T06:54:27.282Z,100826.69
2023-01-12T06:56:56.602Z,100836.81
2023-01-12T06:59:25.574Z,100837.31
2023-01-12T07:01:56.088Z,100844.38
2023-01-12T07:04:25.926Z,100841.19
2023-01-12T07:06:56.341Z,100840.25
2023-01-12T07:09:25.514Z,100848.38
2023-01-12T07:11:54.504Z,100841.19
2023-01-12T07:14:23.506Z,100839.44
2023-01-12T07:16:53.142Z,100836.69
2023-01-12T07:19:24.008Z,100844.75
2023-01-12T07:21:52.954Z,100855.41
2023-01-12T07:24:22.024Z,100850.78
2023-01-12T07:26:51.156Z,100851.28
2023-01-12T07:29:20.180Z,100842.38
2023-01-12T07:31:50.127Z,100831.88
2023-01-12T07:34:26.509Z,100842.38
2023-01-12T07:36:55.496Z,100835.75
2023-01-12T07:39:24.839Z,100839.63
2023-01-12T07:42:11.422Z,100841.75
2023-01-12T07:44:40.604Z,100832.16
2023-01-12T07:47:09.680Z,100837.84
2023-01-12T07:49:40.083Z,100824.56
2023-01-12T07:52:11.921Z,100829.22
2023-01-12T07:54:41.582Z,100822.69
2023-01-12T07:57:12.548Z,100822.03
2023-01-12T07:59:41.683Z,100822.69
2023-01-12T08:02:16.683Z,100816.59
2023-01-12T08:04:47.924Z,100808.06
2023-01-12T08:07:17.111Z,100807.41
2023-01-12T08:09:46.643Z,100805.41
2023-01-12T08:12:15.587Z,100806.06
2023-01-12T08:14:44.638Z,100805.13
2023-01-12T08:17:20.295Z,100799.69
2023-01-12T08:19:55.503Z,100801.00
2023-01-12T08:22:29.426Z,100812.34
2023-01-12T08:25:02.869Z,100811.28
2023-01-12T08:27:35.691Z,100813.94
2023-01-12T08:30:08.420Z,100818.69
2023-01-12T08:32:39.171Z,100813.53
2023-01-12T08:35:10.683Z,100814.50
2023-01-12T08:37:39.610Z,100801.44
2023-01-12T08:40:10.344Z,100796.91
2023-01-12T08:42:39.462Z,100799.97
2023-01-12T08:45:09.876Z,100793.31
2023-01-12T08:47:40.860Z,100790.25
2023-01-12T08:50:12.312Z,100795.97
2023-01-12T08:52:41.415Z,100797.59
2023-01-12T08:55:12.141Z,100785.97
2023-01-12T08:57:42.452Z,100782.94
2023-01-12T09:00:12.742Z,100777.72
2023-01-12T09:02:41.832Z,100767.22
2023-01-12T09:05:12.482Z,100775.50
2023-01-12T09:07:43.085Z,100775.59
2023-01-12T09:10:12.389Z,100769.97
2023-01-12T09:12:42.191Z,100763.97
2023-01-12T09:15:12.413Z,100756.47
2023-01-12T09:17:41.503Z,100760.09
2023-01-12T09:20:13.143Z,100745.19
2023-01-12T09:22:42.094Z,100741.44
2023-01-12T09:25:11.129Z,100743.72
2023-01-12T09:27:40.203Z,100740.69
2023-01-12T09:30:10.789Z,100724.03
2023-01-12T09:32:39.753Z,100735.84
2023-01-12T09:35:09.468Z,100740.13
2023-01-12T09:37:43.156Z,100725.59
2023-01-12T09:40:16.015Z,100728.94
2023-01-12T09:43:07.998Z,100732.25
2023-01-12T09:45:54.380Z,100723.13
2023-01-12T09:48:24.906Z,100725.09
2023-01-12T09:50:59.073Z,100730.63
2023-01-12T09:53:34.828Z,100720.59
2023-01-12T09:56:15.495Z,100719.34
2023-01-12T09:59:04.209Z,100699.53
2023-01-12T10:01:33.352Z,100704.00
2023-01-12T10:04:03.780Z,100705.13
2023-01-12T10:06:33.366Z,100697.75
2023-01-12T10:09:05.851Z,100693.56
2023-01-12T10:11:43.094Z,100696.09
2023-01-12T10:14:44.854Z,100694.81
2023-01-12T10:17:27.858Z,100687.91
2023-01-12T10:20:05.909Z,100697.09
2023-01-12T10:22:41.656Z,100683.59
2023-01-12T10:25:24.573Z,100686.72
2023-01-12T10:27:55.661Z,100684.81
2023-01-12T10:30:30.389Z,100681.97
2023-01-12T10:33:00.133Z,100673.16
2023-01-12T10:35:29.283Z,100673.34
2023-01-12T10:37:58.270Z,100663.31
2023-01-12T10:40:31.446Z,100672.53
2023-01-12T10:43:22.575Z,100676.16
2023-01-12T10:46:12.118Z,100672.75
2023-01-12T10:48:43.937Z,100669.88
2023-01-12T10:51:28.200Z,100672.09
2023-01-12T10:54:01.596Z,100661.59
2023-01-12T10:56:36.631Z,100661.94
2023-01-12T10:59:16.961Z,100657.81
2023-01-12T11:01:48.622Z,100648.75
2023-01-12T11:04:22.892Z,100652.84
2023-01-12T11:07:04.073Z,100649.38
2023-01-12T11:09:34.195Z,100647.59
2023-01-12T11:12:07.699Z,100653.75
2023-01-12T11:14:38.604Z,100649.22
2023-01-12T11:17:33.136Z,100636.94
2023-01-12T11:20:04.173Z,100630.97
2023-01-12T11:22:38.675Z,100635.28
2023-01-12T11:25:13.586Z,100629.53
2023-01-12T11:27:47.679Z,100621.34
2023-01-12T11:30:21.573Z,100629.69
2023-01-12T11:32:56.602Z,100630.53
2023-01-12T11:35:35.004Z,100628.66
2023-01-12T11:38:11.638Z,100620.25
2023-01-12T11:40:42.901Z,100622.66
2023-01-12T11:43:55.928Z,100615.63
2023-01-12T11:46:29.976Z,100620.88
2023-01-12T11:49:08.529Z,100618.53
2023-01-12T11:51:38.016Z,100626.66
2023-01-12T11:54:08.751Z,100624.50
2023-01-12T11:56:58.306Z,100616.69
2023-01-12T11:59:38.565Z,100623.88
2023-01-12T12:02:22.945Z,100627.81
2023-01-12T12:05:04.848Z,100623.91
2023-01-12T12:07:46.327Z,100621.84
2023-01-12T12:10:24.046Z,100615.50
2023-01-12T12:13:24.453Z,100620.44
2023-01-12T12:16:05.659Z,100618.72
2023-01-12T12:18:52.008Z,100622.09
2023-01-12T12:21:37.532Z,100622.25
2023-01-12T12:24:13.359Z,100612.94
2023-01-12T12:26:45.404Z,100615.63
2023-01-12T12:29:30.884Z,100613.91
2023-01-12T12:32:08.632Z,100612.22
2023-01-12T12:34:57.783Z,100611.16
2023-01-12T12:37:42.409Z,100602.97
2023-01-12T12:40:21.994Z,100597.13
2023-01-12T12:43:22.600Z,100599.00
2023-01-12T12:45:57.829Z,100595.97
2023-01-12T12:48:40.183Z,100588.16
2023-01-12T12:51:10.371Z,100600.94
2023-01-12T12:53:42.978Z,100598.03
2023-01-12T12:56:14.430Z,100608.94
2023-01-12T12:58:47.885Z,100607.88
2023-01-12T13:01:43.029Z,100601.88
2023-01-12T13:04:15.293Z,100604.97
2023-01-12T13:06:47.936Z,100601.63
2023-01-12T13:09:40.340Z,100604.56
2023-01-12T13:12:32.332Z,100606.34
2023-01-12T13:15:26.464Z,100595.56
2023-01-12T13:17:56.870Z,100595.06
2023-01-12T13:20:50.817Z,100601.78
2023-01-12T13:23:56.506Z,100601.41
2023-01-12T13:26:46.421Z,100592.50
2023-01-12T13:29:44.600Z,100593.16
2023-01-12T13:32:50.413Z,100597.16
2023-01-12T13:35:55.805Z,100596.31
2023-01-12T13:38:54.153Z,100602.28
2023-01-12T13:41:44.335Z,100596.69
2023-01-12T13:44:22.195Z,100593.63
2023-01-12T13:46:54.649Z,100587.41
2023-01-12T13:49:32.287Z,100587.78
2023-01-12T13:52:03.542Z,100592.03
2023-01-12T13:54:34.832Z,100593.13
2023-01-12T13:57:06.715Z,100586.31
2023-01-12T13:59:37.998Z,100582.75
2023-01-12T14:02:19.505Z,100581.28
2023-01-12T14:05:06.597Z,100581.41
2023-01-12T14:07:50.510Z,100577.03
2023-01-12T14:10:34.634Z,100582.06
2023-01-12T14:13:27.695Z,100567.63
2023-01-12T14:16:30.163Z,100558.97
2023-01-12T14:18:59.162Z,100564.31
2023-01-12T14:21:32.925Z,100567.50
2023-01-12T14:24:16.936Z,100570.53
2023-01-12T14:26:47.923Z,100565.09
2023-01-12T14:29:16.953Z,100561.88
2023-01-12T14:31:49.124Z,100562.78
2023-01-12T14:34:27.937Z,100558.78
2023-01-12T14:36:57.601Z,100554.19
2023-01-12T14:39:28.982Z,100553.38
2023-01-12T14:42:17.075Z,100548.75
2023-01-12T14:45:09.404Z,100546.50
2023-01-12T14:47:39.004Z,100551.66
2023-01-12T14:50:19.391Z,100547.16
2023-01-12T14:52:53.413Z,100542.25
2023-01-12T14:55:29.616Z,100543.03
2023-01-12T14:58:02.348Z,100545.72
2023-01-12T15:00:35.125Z,100540.41
2023-01-12T15:03:07.917Z,100545.31
2023-01-12T15:05:37.609Z,100539.22
2023-01-12T15:08:26.903Z,100539.50
2023-01-12T15:11:00.996Z,100529.13
2023-01-12T15:13:33.129Z,100545.44
2023-01-12T15:16:21.414Z,100540.81
2023-01-12T15:19:08.030Z,100540.81
2023-01-12T15:21:56.170Z,100547.59
2023-01-12T15:24:45.817Z,100541.31
2023-01-12T15:27:16.921Z,100544.38
2023-01-12T15:29:50.783Z,100542.53
2023-01-12T15:32:27.673Z,100537.22
2023-01-12T15:35:02.172Z,100536.16
2023-01-12T15:37:33.154Z,100536.53
2023-01-12T15:40:02.904Z,100537.84
2023-01-12T15:42:33.046Z,100537.41
2023-01-12T15:45:03.799Z,100528.00
2023-01-12T15:47:34.456Z,100529.59
2023-01-12T15:50:04.148Z,100528.69
2023-01-12T15:52:34.266Z,100532.78
2023-01-12T15:55:05.737Z,100531.31
2023-01-12T15:57:38.533Z,100528.81
2023-01-12T16:00:12.874Z,100529.97
2023-01-12T16:02:45.225Z,100532.78
2023-01-12T16:05:15.309Z,100535.56
2023-01-12T16:07:47.488Z,100527.75
2023-01-12T16:10:18.841Z,100524.47
2023-01-12T16:12:49.499Z,100522.63
2023-01-12T16:15:22.655Z,100519.22
2023-01-12T16:17:52.805Z,100507.94
2023-01-12T16:20:22.580Z,100510.44
2023-01-12T16:22:52.093Z,100513.91
2023-01-12T16:25:21.689Z,100515.50
2023-01-12T16:27:51.290Z,100502.47
2023-01-12T16:30:22.898Z,100499.88
2023-01-12T16:32:52.558Z,100500.13
2023-01-12T16:35:21.828Z,100500.75
2023-01-12T16:37:55.326Z,100499.16
2023-01-12T16:40:24.360Z,100498.59
2023-01-12T16:42:54.244Z,100498.69
2023-01-12T16:45:24.907Z,100507.34
2023-01-12T16:47:58.021Z,100505.94
2023-01-12T16:50:27.441Z,100507.00
2023-01-12T16:52:56.612Z,100506.19
2023-01-12T16:55:25.658Z,100502.41
2023-01-12T16:57:54.741Z,100502.09
2023-01-12T17:00:26.420Z,100503.16
2023-01-12T17:02:55.706Z,100495.59
2023-01-12T17:05:24.912Z,100492.81
2023-01-12T17:07:55.083Z,100486.81
2023-01-12T17:10:25.003Z,100485.50
2023-01-12T17:12:57.130Z,100480.63
2023-01-12T17:15:31.425Z,100478.47
2023-01-12T17:18:01.009Z,100463.47
2023-01-12T17:20:30.693Z,100461.34
2023-01-12T17:23:00.695Z,100460.50
2023-01-12T17:25:29.884Z,100462.69
2023-01-12T17:27:59.014Z,100450.72
2023-01-12T17:30:28.469Z,100445.41
2023-01-12T17:32:58.882Z,100450.97
2023-01-12T17:35:27.963Z,100459.56
2023-01-12T17:37:56.996Z,100462.50
2023-01-12T17:40:27.481Z,100459.34
2023-01-12T17:43:07.806Z,100461.59
2023-01-12T17:45:42.940Z,100451.97
2023-01-12T17:48:13.506Z,100448.59
2023-01-12T17:50:42.811Z,100455.03
2023-01-12T17:53:11.942Z,100459.16
2023-01-12T17:55:48.316Z,100463.03
2023-01-12T17:58:19.084Z,100454.75
2023-01-12T18:00:50.976Z,100466.47
2023-01-12T18:03:21.703Z,100471.31
2023-01-12T18:06:02.792Z,100476.38
2023-01-12T18:08:34.212Z,100470.38
2023-01-12T18:11:04.306Z,100463.03
2023-01-12T18:13:34.000Z,100461.41
2023-01-12T18:16:03.413Z,100461.69
2023-01-12T18:18:34.096Z,100470.44
2023-01-12T18:21:05.426Z,100456.69
2023-01-12T18:23:34.859Z,100465.47
2023-01-12T18:26:06.840Z,100452.81
2023-01-12T18:28:35.966Z,100446.16
2023-01-12T18:31:05.819Z,100443.84
2023-01-12T18:33:37.115Z,100449.44
2023-01-12T18:36:11.683Z,100454.03
2023-01-12T18:38:41.677Z,100453.59
2023-01-12T18:41:28.952Z,100457.91
2023-01-12T18:44:00.900Z,100452.22
2023-01-12T18:46:51.005Z,100447.34
2023-01-12T18:49:23.762Z,100445.75
2023-01-12T18:52:10.590Z,100445.31
2023-01-12T18:54:41.987Z,100440.91
2023-01-12T18:57:14.004Z,100443.72
2023-01-12T18:59:43.317Z,100442.34
2023-01-12T19:02:13.278Z,100445.38
2023-01-12T19:05:07.880Z,100438.06
2023-01-12T19:08:00.642Z,100439.63
2023-01-12T19:10:31.575Z,100444.28
2023-01-12T19:13:24.025Z,100445.19
2023-01-12T19:16:10.581Z,100443.84
2023-01-12T19:18:40.340Z,100441.56
2023-01-12T19:21:28.218Z,100452.78
2023-01-12T19:24:26.024Z,100460.91
2023-01-12T19:27:12.589Z,100454.91
2023-01-12T19:29:43.962Z,100448.94
2023-01-12T19:32:13.984Z,100452.38
2023-01-12T19:34:43.321Z,100444.78
2023-01-12T19:37:14.111Z,100445.94
2023-01-12T19:39:59.657Z,100443.00
2023-01-12T19:42:47.866Z,100434.69
2023-01-12T19:45:19.581Z,100428.53
2023-01-12T19:47:48.863Z,100432.44
2023-01-12T19:50:20.404Z,100438.84
2023-01-12T19:52:51.328Z,100441.66
2023-01-12T19:55:20.791Z,100444.41
2023-01-12T19:57:51.918Z,100438.00
2023-01-12T20:00:22.319Z,100442.13
2023-01-12T20:02:52.252Z,100438.00
2023-01-12T20:05:23.871Z,100441.47
2023-01-12T20:07:55.519Z,100450.03
2023-01-12T20:10:25.517Z,100450.97
2023-01-12T20:12:54.952Z,100449.13
2023-01-12T20:15:24.033Z,100454.44
2023-01-12T20:17:53.065Z,100447.50
2023-01-12T20:20:22.146Z,100448.19
2023-01-12T20:22:51.748Z,100449.38
2023-01-12T20:25:23.435Z,100456.28
2023-01-12T20:27:53.314Z,100451.47
2023-01-12T20:30:36.917Z,100455.00
2023-01-12T20:33:07.504Z,100457.53
2023-01-12T20:35:38.575Z,100455.00
2023-01-12T20:38:13.477Z,100450.63
2023-01-12T20:40:44.415Z,100453.38
2023-01-12T20:43:13.479Z,100449.25
2023-01-12T20:45:44.373Z,100449.75
2023-01-12T20:48:15.005Z,100448.38
2023-01-12T20:50:45.629Z,100439.19
2023-01-12T20:53:15.765Z,100447.25
2023-01-12T20:55:48.169Z,100448.63
2023-01-12T20:58:17.798Z,100438.72
2023-01-12T21:00:47.014Z,100432.50
2023-01-12T21:03:16.913Z,100429.53
2023-01-12T21:05:48.092Z,100427.75
2023-01-12T21:08:18.273Z,100434.66
2023-01-12T21:10:52.003Z,100432.81
2023-01-12T21:13:21.342Z,100425.03
2023-01-12T21:15:57.613Z,100428.72
2023-01-12T21:18:27.099Z,100426.63
2023-01-12T21:20:56.650Z,100431.72
2023-01-12T21:23:26.524Z,100421.81
2023-01-12T21:25:56.999Z,100425.03
2023-01-12T21:28:26.744Z,100424.34
2023-01-12T21:30:56.482Z,100426.69
2023-01-12T21:33:25.442Z,100423.91
2023-01-12T21:35:57.549Z,100428.53
2023-01-12T21:38:27.830Z,100436.13
2023-01-12T21:41:03.184Z,100425.34
2023-01-12T21:43:32.298Z,100417.72
2023-01-12T21:46:06.969Z,100428.78
2023-01-12T21:48:36.876Z,100414.03
2023-01-12T21:51:06.854Z,100416.34
2023-01-12T21:53:36.187Z,100419.38
2023-01-12T21:56:07.501Z,100421.22
2023-01-12T21:58:37.495Z,100424.25
2023-01-12T22:01:11.457Z,100429.34
2023-01-12T22:03:41.029Z,100427.72
2023-01-12T22:06:12.246Z,100427.97
2023-01-12T22:08:42.610Z,100429.13
2023-01-12T22:11:14.848Z,100427.28
2023-01-12T22:13:44.741Z,100428.44
2023-01-12T22:16:16.393Z,100415.53
2023-01-12T22:18:49.293Z,100416.47
2023-01-12T22:21:20.010Z,100416.03
2023-01-12T22:23:49.797Z,100401.75
2023-01-12T22:26:21.374Z,100412.13
2023-01-12T22:28:50.549Z,100398.50
2023-01-12T22:31:21.959Z,100393.44
2023-01-12T22:33:57.692Z,100395.28
2023-01-12T22:36:26.951Z,100390.97
2023-01-12T22:38:56.437Z,100396.03
2023-01-12T22:41:27.228Z,100392.09
2023-01-12T22:43:56.916Z,100388.44
2023-01-12T22:46:27.630Z,100405.22
2023-01-12T22:48:57.797Z,100395.09
2023-01-12T22:51:29.466Z,100399.50
2023-01-12T22:53:58.996Z,100394.91
2023-01-12T22:56:29.454Z,100391.69
2023-01-12T22:58:58.687Z,100398.38
2023-01-12T23:01:28.104Z,100397.47
2023-01-12T23:03:57.903Z,100396.78
2023-01-12T23:06:27.839Z,100391.69
2023-01-12T23:08:56.952Z,100395.38
2023-01-12T23:11:28.459Z,100402.78
2023-01-12T23:13:57.406Z,100404.41
2023-01-12T23:16:27.374Z,100397.25
2023-01-12T23:18:56.543Z,100399.34
2023-01-12T23:21:27.226Z,100392.66
2023-01-12T23:23:57.996Z,100394.53
2023-01-12T23:26:31.009Z,100403.97
2023-01-12T23:29:03.187Z,100407.44
2023-01-12T23:31:34.568Z,100403.28
2023-01-12T23:34:03.800Z,100403.78
2023-01-12T23:36:33.400Z,100393.66
2023-01-12T23:39:04.443Z,100391.38
2023-01-12T23:41:36.331Z,100391.38
2023-01-12T23:44:07.641Z,100397.16
2023-01-12T23:46:38.663Z,100400.63
2023-01-12T23:49:07.902Z,100399.00
2023-01-12T23:51:37.083Z,100390.47
2023-01-12T23:54:07.713Z,100387.22
2023-01-12T23:56:38.121Z,100370.66
2023-01-12T23:59:07.258Z,100369.69
